• Join FlightAware (Why Join?)
  • Login
  • US Flag 
04:08PM EDT


 

Airport Tracker/Info


-or-


 

Live Flight TrackerFlight Track Log ✈ KAP29 ✈ 09-Jun-2013 ✈ KBOS - KSLK

Flight Track Log - Related Links

Times and Time Zones

All times are in EDT time to prevent confusion due to time zone crossing. See the KAP29 flight status page for this flight to view local times or setup timezone preferences in your user account.

Time Position Orientation Groundspeed Altitude Reporting Facility
EDT Latitude Longitude Course Direction KTS MPH feet Rate Location/Type
09:39AM 42.3667 -71.0167 216° Southwest 106 122 400  Level KA90
09:40AM 42.3500 -71.0333 216° Southwest 112 129 1,000 900 Climbing KA90
09:41AM 42.3500 -71.0833 270° West 124 143 2,000 960 Climbing KA90
09:42AM 42.3500 -71.1167 270° West 116 133 3,000 900 Climbing KA90
09:43AM 42.3667 -71.1500 304° West 127 146 3,800 780 Climbing KA90
09:44AM 42.4000 -71.1667 340° North 125 144 4,600 720 Climbing KA90
09:45AM 42.4333 -71.1833 340° North 136 157 5,300 660 Climbing KA90
09:46AM 42.4833 -71.2000 346° North 139 160 6,000 360 Climbing KA90
09:47AM 42.5167 -71.2167 340° North 160 184 6,100  Climbing KA90
09:48AM 42.5667 -71.2333 346° North 156 180 6,100  Level KA90
09:48AM 42.6000 -71.2500 340° North 153 176 6,100  Level KA90
09:49AM 42.6333 -71.2667 340° North 148 170 6,200 180 Climbing KA90
09:51AM 42.6667 -71.2833 340° North 138 159 6,500 240 Climbing KA90
09:52AM 42.7167 -71.3000 346° North 136 157 6,800 300 Climbing KA90
09:53AM 42.7500 -71.3167 340° North 131 151 7,100 300 Climbing KA90
09:54AM 42.7833 -71.3333 340° North 132 152 7,500 300 Climbing KA90
09:55AM 42.8167 -71.3500 340° North 136 157 7,700 300 Climbing KA90
09:56AM 42.8500 -71.3667 340° North 133 153 8,100 180 Climbing KA90
09:57AM 42.8833 -71.4000 324° Northwest 141 162 8,100  Level KA90
09:58AM 42.9167 -71.4333 324° Northwest 144 166 8,100  Level KA90
09:59AM 42.9333 -71.4833 294° West 145 167 8,100  Level KA90
10:00AM 42.9667 -71.5167 324° Northwest 143 165 8,100  Level KA90
10:01AM 42.9833 -71.5500 304° West 146 168 8,100  Level KA90
10:02AM 43.0167 -71.6000 312° West 143 165 8,100  Level KA90
10:03AM 43.0500 -71.6333 324° Northwest 144 166 8,100  Level KA90
10:04AM 43.0667 -71.6667 304° West 147 169 8,100  Level KA90
10:04AM 43.0900 -71.7094 307° West 151 174 8,100  Level Boston Center
10:05AM 43.1153 -71.7461 313° West 157 181 8,100  Level Boston Center
10:06AM 43.1447 -71.7856 316° Northwest 149 171 8,100  Level Boston Center
10:07AM 43.1697 -71.8222 313° West 144 166 8,100  Level Boston Center
10:08AM 43.1972 -71.8647 312° West 144 166 8,100  Level Boston Center
10:09AM 43.2222 -71.9017 313° West 135 155 8,100  Level Boston Center
10:10AM 43.2539 -71.9442 316° Northwest 140 161 8,100  Level Boston Center
10:11AM 43.2789 -71.9808 313° West 140 161 8,100  Level Boston Center
10:12AM 43.3061 -72.0236 311° West 140 161 8,100  Level Boston Center
10:13AM 43.3314 -72.0575 316° Northwest 140 161 8,100  Level Boston Center
10:14AM 43.3669 -72.1089 314° West 140 161 8,100  Level Boston Center
10:15AM 43.3900 -72.1458 311° West 140 161 8,100  Level Boston Center
10:16AM 43.4214 -72.1886 315° West 140 161 8,100  Level Boston Center
10:18AM 43.4486 -72.2314 311° West 140 161 8,100  Level Boston Center
10:19AM 43.4797 -72.2742 315° West 140 161 8,100  Level Boston Center
10:20AM 43.5050 -72.3142 311° West 140 161 8,100  Level Boston Center
10:21AM 43.5319 -72.3569 311° West 140 161 8,100  Level Boston Center
10:22AM 43.5592 -72.3942 315° West 140 161 8,100  Level Boston Center
10:23AM 43.5861 -72.4372 311° West 140 161 8,100  Level Boston Center
10:24AM 43.6153 -72.4803 313° West 145 167 8,200 180 Climbing Boston Center
10:25AM 43.6403 -72.5175 313° West 145 167 8,500 300 Climbing Boston Center
10:26AM 43.6653 -72.5519 315° West 139 160 8,800 300 Climbing Boston Center
10:27AM 43.6861 -72.5864 310° West 128 147 9,100 300 Climbing Boston Center
10:28AM 43.7069 -72.6153 315° West 116 133 9,500 420 Climbing Boston Center
10:29AM 43.7236 -72.6442 309° West 110 127 10,000 240 Climbing Boston Center
10:30AM 43.7464 -72.6786 312° West 110 127 10,000  Level Boston Center
10:31AM 43.7714 -72.7189 311° West 121 139 10,000  Level Boston Center
10:32AM 43.7983 -72.7564 315° West 140 161 10,000  Level Boston Center
10:33AM 43.8253 -72.7997 311° West 135 155 10,000  Level Boston Center
10:34AM 43.8544 -72.8403 315° West 140 161 10,000  Level Boston Center
10:35AM 43.8792 -72.8778 312° West 140 161 10,000  Level Boston Center
10:36AM 43.9061 -72.9183 313° West 140 161 10,000  Level Boston Center
10:37AM 43.9331 -72.9619 311° West 145 167 10,000  Level Boston Center
10:38AM 43.9600 -73.0025 313° West 145 167 10,000  Level Boston Center
10:39AM 43.9950 -73.0547 313° West 145 167 10,000  Level Boston Center
10:40AM 44.0239 -73.0983 313° West 145 167 10,000  Level Boston Center
10:41AM 44.0508 -73.1392 313° West 150 173 10,000  Level Boston Center
10:42AM 44.0797 -73.1828 313° West 150 173 10,000  Level Boston Center
10:43AM 44.1086 -73.2236 315° West 150 173 10,000  Level Boston Center
10:44AM 44.1356 -73.2644 313° West 150 173 10,000  Level Boston Center
10:45AM 44.1622 -73.3083 310° West 150 173 10,000  Level Boston Center
10:46AM 44.1911 -73.3492 315° West 150 173 10,000  Level Boston Center
10:47AM 44.2178 -73.3931 310° West 150 173 10,000  Level Boston Center
10:48AM 44.2467 -73.4342 314° West 145 167 10,000  Level Boston Center
10:49AM 44.2733 -73.4781 310° West 145 167 10,000 -240 Level Boston Center
10:50AM 44.3019 -73.5250 310° West 166 191 9,600 -480 Descending Boston Center
10:51AM 44.3308 -73.5661 314° West 166 191 9,100 -480 Descending Boston Center
10:52AM 44.3594 -73.6103 312° West 166 191 8,700 -600 Descending Boston Center
10:53AM 44.3925 -73.6575 314° West 161 185 7,900 -600 Descending Boston Center
10:54AM 44.4211 -73.7044 310° West 161 185 7,500 -240 Descending Boston Center
10:55AM 44.4497 -73.7458 314° West 161 185 7,500  Level Boston Center
10:56AM 44.4744 -73.7842 312° West 145 167 7,500  Level Boston Center
10:57AM 44.4989 -73.8256 310° West 139 160 7,500  Level Boston Center
10:58AM 44.5233 -73.8639 312° West 134 154 7,500  Level Boston Center
10:59AM 44.5436 -73.9108 301° West 134 154 7,500 -540 Level Boston Center
11:00AM 44.5575 -73.9697 288° West 145 167 6,500 -780 Descending Boston Center
11:01AM 44.5544 -74.0364 266° West 158 182 5,800 -720 Descending Boston Center
11:02AM 44.5183 -74.0792 220° Southwest 161 185 5,000 -720 Descending Boston Center
11:03AM 44.4825 -74.1131 214° Southwest 168 193 4,400 -600 Descending Boston Center